createdAt,value
2023-04-03T00:01:22.460Z,2.76
2023-04-03T00:03:51.164Z,2.64
2023-04-03T00:06:19.248Z,2.53
2023-04-03T00:08:47.261Z,2.83
2023-04-03T00:11:16.239Z,4.53
2023-04-03T00:13:44.537Z,5.55
2023-04-03T00:16:12.818Z,4.87
2023-04-03T00:18:41.233Z,4.19
2023-04-03T00:21:11.707Z,3.72
2023-04-03T00:23:39.552Z,3.41
2023-04-03T00:26:07.695Z,3.17
2023-04-03T00:28:35.513Z,2.99
2023-04-03T00:31:03.801Z,2.83
2023-04-03T00:33:31.647Z,2.68
2023-04-03T00:35:59.840Z,2.56
2023-04-03T00:38:27.745Z,2.44
2023-04-03T00:40:55.599Z,2.79
2023-04-03T00:43:27.403Z,4.54
2023-04-03T00:45:58.642Z,5.71
2023-04-03T00:48:51.389Z,5.03
2023-04-03T00:51:25.505Z,4.18
2023-04-03T00:53:59.571Z,3.70
2023-04-03T00:56:29.317Z,3.37
2023-04-03T00:59:03.252Z,3.12
2023-04-03T01:01:31.749Z,2.91
2023-04-03T01:04:05.076Z,2.73
2023-04-03T01:06:38.485Z,2.58
2023-04-03T01:09:06.874Z,2.43
2023-04-03T01:11:34.957Z,2.82
2023-04-03T01:14:03.149Z,4.58
2023-04-03T01:16:32.867Z,5.64
2023-04-03T01:19:02.202Z,4.90
2023-04-03T01:22:03.852Z,4.13
2023-04-03T01:24:37.534Z,3.55
2023-04-03T01:27:08.183Z,3.21
2023-04-03T01:29:39.491Z,2.95
2023-04-03T01:32:07.458Z,2.74
2023-04-03T01:34:35.407Z,2.56
2023-04-03T01:37:03.447Z,2.79
2023-04-03T01:39:31.342Z,4.42
2023-04-03T01:42:00.424Z,5.53
2023-04-03T01:44:28.409Z,4.88
2023-04-03T01:46:56.416Z,4.08
2023-04-03T01:49:24.298Z,3.57
2023-04-03T01:51:52.180Z,3.19
2023-04-03T01:54:20.080Z,2.91
2023-04-03T01:56:48.154Z,2.69
2023-04-03T01:59:18.060Z,2.56
2023-04-03T02:01:46.316Z,3.72
2023-04-03T02:04:14.346Z,5.49
2023-04-03T02:06:42.321Z,6.20
2023-04-03T02:09:10.295Z,5.27
2023-04-03T02:11:38.259Z,4.43
2023-04-03T02:14:06.393Z,3.86
2023-04-03T02:16:34.369Z,3.45
2023-04-03T02:19:02.311Z,3.14
2023-04-03T02:21:30.364Z,2.89
2023-04-03T02:23:58.471Z,2.67
2023-04-03T02:26:26.936Z,2.48
2023-04-03T02:28:54.894Z,2.77
2023-04-03T02:31:22.864Z,4.47
2023-04-03T02:33:51.142Z,5.73
2023-04-03T02:36:18.971Z,5.17
2023-04-03T02:38:46.922Z,4.28
2023-04-03T02:41:15.682Z,3.67
2023-04-03T02:43:43.516Z,3.25
2023-04-03T02:46:11.496Z,2.94
2023-04-03T02:48:39.380Z,2.69
2023-04-03T02:51:07.381Z,2.99
2023-04-03T02:53:35.480Z,4.62
2023-04-03T02:56:03.458Z,5.65
2023-04-03T02:58:31.334Z,4.88
2023-04-03T03:00:59.232Z,4.08
2023-04-03T03:03:27.152Z,3.54
2023-04-03T03:06:13.707Z,3.15
2023-04-03T03:08:42.794Z,2.81
2023-04-03T03:11:11.482Z,2.87
2023-04-03T03:13:39.399Z,4.35
2023-04-03T03:16:07.791Z,5.49
2023-04-03T03:18:36.327Z,4.81
2023-04-03T03:21:04.880Z,3.99
2023-04-03T03:23:33.669Z,3.44
2023-04-03T03:26:06.307Z,3.05
2023-04-03T03:28:34.503Z,2.74
2023-04-03T03:31:02.454Z,2.57
2023-04-03T03:33:31.018Z,3.70
2023-04-03T03:35:59.036Z,5.35
2023-04-03T03:38:27.302Z,5.85
2023-04-03T03:40:55.313Z,4.86
2023-04-03T03:43:23.364Z,4.03
2023-04-03T03:45:53.480Z,3.46
2023-04-03T03:48:22.187Z,3.07
2023-04-03T03:50:51.200Z,2.76
2023-04-03T03:53:20.283Z,2.49
2023-04-03T03:55:48.355Z,2.80
2023-04-03T03:58:16.256Z,4.46
2023-04-03T04:00:44.279Z,5.48
2023-04-03T04:03:12.306Z,4.72
2023-04-03T04:05:40.485Z,3.88
2023-04-03T04:08:08.346Z,3.29
2023-04-03T04:10:37.016Z,2.87
2023-04-03T04:13:04.949Z,2.55
2023-04-03T04:15:32.904Z,2.70
2023-04-03T04:18:00.882Z,4.23
2023-04-03T04:20:28.900Z,5.28
2023-04-03T04:22:56.924Z,4.54
2023-04-03T04:25:25.071Z,3.72
2023-04-03T04:27:53.039Z,3.16
2023-04-03T04:30:21.005Z,2.75
2023-04-03T04:32:49.035Z,2.45
2023-04-03T04:35:18.407Z,2.71
2023-04-03T04:37:46.668Z,4.33
2023-04-03T04:40:15.763Z,5.39
2023-04-03T04:42:43.708Z,4.64
2023-04-03T04:45:11.883Z,3.81
2023-04-03T04:47:39.819Z,3.25
2023-04-03T04:50:08.670Z,2.88
2023-04-03T04:52:36.574Z,3.15
2023-04-03T04:55:05.542Z,4.82
2023-04-03T04:57:33.936Z,5.79
2023-04-03T05:00:01.980Z,4.99
2023-04-03T05:02:30.157Z,4.20
2023-04-03T05:04:58.265Z,3.65
2023-04-03T05:07:26.242Z,3.25
2023-04-03T05:09:54.106Z,2.97
2023-04-03T05:12:23.221Z,2.72
2023-04-03T05:14:51.124Z,3.32
2023-04-03T05:17:19.049Z,5.00
2023-04-03T05:19:47.103Z,5.68
2023-04-03T05:22:15.066Z,4.79
2023-04-03T05:24:43.169Z,4.00
2023-04-03T05:27:12.058Z,3.48
2023-04-03T05:29:40.043Z,3.13
2023-04-03T05:32:07.907Z,2.86
2023-04-03T05:34:35.937Z,3.03
2023-04-03T05:37:05.420Z,4.59
2023-04-03T05:39:33.913Z,5.48
2023-04-03T05:42:01.777Z,4.72
2023-04-03T05:44:29.731Z,3.99
2023-04-03T05:46:57.682Z,3.50
2023-04-03T05:49:25.673Z,3.16
2023-04-03T05:51:53.572Z,2.91
2023-04-03T05:54:30.141Z,3.08
2023-04-03T05:56:58.175Z,4.75
2023-04-03T05:59:26.116Z,5.53
2023-04-03T06:01:53.978Z,4.75
2023-04-03T06:04:22.285Z,4.04
2023-04-03T06:06:55.861Z,3.61
2023-04-03T06:09:27.266Z,3.30
2023-04-03T06:11:55.375Z,3.06
2023-04-03T06:14:23.215Z,3.04
2023-04-03T06:16:51.091Z,4.41
2023-04-03T06:19:19.332Z,5.57
2023-04-03T06:21:48.308Z,5.01
2023-04-03T06:24:18.129Z,4.34
2023-04-03T06:26:46.718Z,3.88
2023-04-03T06:29:14.802Z,3.58
2023-04-03T06:31:42.761Z,3.36
2023-04-03T06:34:11.929Z,3.21
2023-04-03T06:36:40.593Z,3.08
2023-04-03T06:39:10.517Z,2.97
2023-04-03T06:41:38.486Z,3.30
2023-04-03T06:44:06.451Z,4.97
2023-04-03T06:46:34.289Z,5.99
2023-04-03T06:49:02.560Z,5.38
2023-04-03T06:51:31.321Z,4.75
2023-04-03T06:54:00.743Z,4.31
2023-04-03T06:56:29.358Z,4.03
2023-04-03T06:58:58.788Z,3.85
2023-04-03T07:01:29.289Z,3.73
2023-04-03T07:03:57.555Z,3.63
2023-04-03T07:06:28.858Z,3.55
2023-04-03T07:08:57.054Z,3.47
2023-04-03T07:11:25.103Z,3.41
2023-04-03T07:13:53.579Z,3.36
2023-04-03T07:16:21.800Z,3.32
2023-04-03T07:18:49.783Z,3.32
2023-04-03T07:21:17.876Z,3.31
2023-04-03T07:23:45.965Z,3.34
2023-04-03T07:26:13.876Z,3.38
2023-04-03T07:28:42.537Z,3.42
2023-04-03T07:31:14.760Z,3.45
2023-04-03T07:33:43.949Z,3.48
2023-04-03T07:36:16.917Z,3.52
2023-04-03T07:38:44.814Z,3.56
2023-04-03T07:41:18.731Z,3.63
2023-04-03T07:43:47.989Z,3.69
2023-04-03T07:46:15.872Z,3.73
2023-04-03T07:48:43.900Z,3.79
2023-04-03T07:51:11.783Z,3.86
2023-04-03T07:53:39.775Z,3.94
2023-04-03T07:56:08.199Z,4.02
2023-04-03T07:58:36.980Z,4.07
2023-04-03T08:01:05.254Z,4.16
2023-04-03T08:03:33.324Z,4.33
2023-04-03T08:06:09.126Z,4.53
2023-04-03T08:08:39.607Z,4.67
2023-04-03T08:11:09.099Z,4.77
2023-04-03T08:13:37.171Z,4.90
2023-04-03T08:16:13.666Z,5.03
2023-04-03T08:18:41.483Z,5.23
2023-04-03T08:21:11.765Z,5.40
2023-04-03T08:23:42.728Z,5.54
2023-04-03T08:26:16.393Z,5.64
2023-04-03T08:28:44.359Z,5.73
2023-04-03T08:31:18.094Z,5.76
2023-04-03T08:33:46.365Z,5.82
2023-04-03T08:36:29.307Z,5.92
2023-04-03T08:38:57.484Z,6.06
2023-04-03T08:41:40.709Z,6.19
2023-04-03T08:44:29.910Z,6.36
2023-04-03T08:47:26.342Z,6.62
2023-04-03T08:50:01.792Z,6.98
2023-04-03T08:53:07.710Z,7.24
2023-04-03T08:55:49.783Z,7.61
2023-04-03T08:58:23.607Z,7.99
2023-04-03T09:01:09.086Z,8.40
2023-04-03T09:03:41.313Z,8.83
2023-04-03T09:06:23.540Z,9.19
2023-04-03T09:09:36.432Z,9.49
2023-04-03T09:12:41.205Z,9.73
2023-04-03T09:15:37.733Z,9.71
2023-04-03T09:18:17.856Z,9.52
2023-04-03T09:21:17.707Z,9.30
2023-04-03T09:23:50.810Z,9.10
2023-04-03T09:26:36.460Z,8.94
2023-04-03T09:29:08.837Z,8.86
2023-04-03T09:31:44.911Z,8.93
2023-04-03T09:34:33.437Z,9.09
2023-04-03T09:37:09.772Z,9.25
2023-04-03T09:39:54.591Z,9.44
2023-04-03T09:42:25.425Z,9.59
2023-04-03T09:45:04.859Z,9.69
2023-04-03T09:47:36.221Z,9.82
2023-04-03T09:50:16.062Z,10.04
2023-04-03T09:52:47.242Z,10.26
2023-04-03T09:55:15.442Z,10.25
2023-04-03T09:57:43.323Z,10.15
2023-04-03T10:00:39.745Z,10.03
2023-04-03T10:03:29.801Z,9.86
2023-04-03T10:05:58.889Z,9.64
2023-04-03T10:08:30.718Z,9.48
2023-04-03T10:11:19.853Z,9.47
2023-04-03T10:14:03.994Z,9.58
2023-04-03T10:16:48.567Z,9.70
2023-04-03T10:19:44.878Z,9.81
2023-04-03T10:22:56.259Z,9.91
2023-04-03T10:25:41.409Z,10.13
2023-04-03T10:28:55.934Z,10.35
2023-04-03T10:31:35.351Z,10.38
2023-04-03T10:34:37.224Z,10.36
2023-04-03T10:37:37.612Z,10.41
2023-04-03T10:40:52.680Z,10.50
2023-04-03T10:43:26.731Z,10.56
2023-04-03T10:46:07.326Z,10.60
2023-04-03T10:49:12.979Z,10.63
2023-04-03T10:51:47.256Z,10.61
2023-04-03T10:54:26.181Z,10.63
2023-04-03T10:57:12.927Z,10.59
2023-04-03T11:00:06.389Z,10.58
2023-04-03T11:02:49.541Z,10.59
2023-04-03T11:05:31.013Z,10.64
2023-04-03T11:08:04.348Z,10.58
2023-04-03T11:10:48.768Z,10.42
2023-04-03T11:13:33.912Z,10.19
2023-04-03T11:16:03.890Z,9.98
2023-04-03T11:18:53.754Z,9.80
2023-04-03T11:21:30.672Z,9.58
2023-04-03T11:24:01.630Z,9.49
2023-04-03T11:26:37.776Z,9.50
2023-04-03T11:29:17.888Z,9.47
2023-04-03T11:32:30.728Z,9.41
2023-04-03T11:35:02.651Z,9.46
2023-04-03T11:37:45.982Z,9.51
2023-04-03T11:40:17.016Z,9.49
2023-04-03T11:42:54.423Z,9.38
2023-04-03T11:45:51.962Z,9.24
2023-04-03T11:48:24.892Z,9.04
2023-04-03T11:50:53.337Z,8.89
2023-04-03T11:53:30.329Z,8.78
2023-04-03T11:56:24.895Z,8.69
2023-04-03T11:59:19.287Z,8.59
2023-04-03T12:01:59.104Z,8.49
2023-04-03T12:04:29.917Z,8.50
2023-04-03T12:07:16.498Z,8.47
2023-04-03T12:09:44.673Z,8.36
2023-04-03T12:12:29.949Z,8.27
2023-04-03T12:15:42.578Z,8.14
2023-04-03T12:18:54.586Z,8.02
2023-04-03T12:21:45.999Z,7.92
2023-04-03T12:24:17.022Z,7.88
2023-04-03T12:27:17.246Z,7.87
2023-04-03T12:29:48.922Z,7.89
2023-04-03T12:32:28.043Z,7.98
2023-04-03T12:34:58.916Z,8.12
2023-04-03T12:38:06.955Z,8.27
2023-04-03T12:40:43.688Z,8.42
2023-04-03T12:43:56.394Z,8.40
2023-04-03T12:46:25.807Z,8.33
2023-04-03T12:48:57.618Z,8.30
2023-04-03T12:51:46.519Z,8.37
2023-04-03T12:54:28.537Z,8.45
2023-04-03T12:57:22.726Z,8.57
2023-04-03T12:59:50.720Z,8.72
2023-04-03T13:02:29.061Z,8.79
2023-04-03T13:05:01.594Z,8.78
2023-04-03T13:07:35.941Z,8.73
2023-04-03T13:10:10.016Z,8.66
2023-04-03T13:13:10.941Z,8.53
2023-04-03T13:15:49.987Z,8.39
2023-04-03T13:18:33.772Z,8.29
2023-04-03T13:21:27.816Z,8.29
2023-04-03T13:24:13.731Z,8.27
2023-04-03T13:26:43.506Z,8.20
2023-04-03T13:29:31.161Z,8.12
2023-04-03T13:32:02.129Z,8.00
2023-04-03T13:34:38.489Z,7.91
2023-04-03T13:37:06.522Z,7.88
2023-04-03T13:39:38.388Z,7.92
2023-04-03T13:42:24.116Z,7.95
2023-04-03T13:45:29.633Z,7.93
2023-04-03T13:48:22.151Z,7.89
2023-04-03T13:51:06.426Z,7.87
2023-04-03T13:53:35.670Z,7.85
2023-04-03T13:56:21.943Z,7.84
2023-04-03T13:59:18.135Z,7.79
2023-04-03T14:01:54.168Z,7.72
2023-04-03T14:04:29.516Z,7.64
2023-04-03T14:06:57.966Z,7.59
2023-04-03T14:09:28.622Z,7.54
2023-04-03T14:12:11.326Z,7.50
2023-04-03T14:14:46.721Z,7.48
2023-04-03T14:17:25.072Z,7.45
2023-04-03T14:19:56.653Z,7.41
2023-04-03T14:22:26.153Z,7.35
2023-04-03T14:24:54.784Z,7.28
2023-04-03T14:27:35.799Z,7.20
2023-04-03T14:30:05.839Z,7.15
2023-04-03T14:32:34.425Z,7.10
2023-04-03T14:35:03.380Z,7.04
2023-04-03T14:37:32.653Z,7.00
2023-04-03T14:40:03.246Z,6.96
2023-04-03T14:42:35.704Z,6.93
2023-04-03T14:45:09.628Z,6.93
2023-04-03T14:48:02.544Z,6.93
2023-04-03T14:50:30.497Z,6.89
2023-04-03T14:52:59.885Z,6.84
2023-04-03T14:55:28.790Z,6.78
2023-04-03T14:57:59.468Z,6.71
2023-04-03T15:00:28.388Z,6.65
2023-04-03T15:02:56.397Z,6.61
2023-04-03T15:05:24.413Z,6.58
2023-04-03T15:07:57.383Z,6.60
2023-04-03T15:10:28.676Z,6.64
2023-04-03T15:12:57.219Z,6.67
2023-04-03T15:15:26.015Z,6.67
2023-04-03T15:17:57.383Z,6.64
2023-04-03T15:20:28.001Z,6.60
2023-04-03T15:22:57.528Z,6.55
2023-04-03T15:25:26.494Z,6.50
2023-04-03T15:27:56.275Z,6.45
2023-04-03T15:30:24.335Z,6.41
2023-04-03T15:32:52.512Z,6.39
2023-04-03T15:35:20.590Z,6.36
2023-04-03T15:37:49.261Z,6.35
2023-04-03T15:40:17.334Z,6.35
2023-04-03T15:42:45.232Z,6.34
2023-04-03T15:45:13.124Z,6.33
2023-04-03T15:47:41.222Z,6.32
2023-04-03T15:50:10.050Z,6.30
2023-04-03T15:52:37.912Z,6.26
2023-04-03T15:55:07.018Z,6.21
2023-04-03T16:00:02.757Z,6.14
2023-04-03T16:02:30.799Z,6.11
2023-04-03T16:04:58.896Z,6.07
2023-04-03T16:07:27.105Z,6.03
2023-04-03T16:09:55.119Z,6.03
2023-04-03T16:12:23.694Z,6.01
2023-04-03T16:14:52.822Z,6.02
2023-04-03T16:17:24.031Z,6.03
2023-04-03T16:19:53.946Z,6.04
2023-04-03T16:22:22.962Z,6.01
2023-04-03T16:24:51.095Z,5.98
2023-04-03T16:27:19.747Z,5.94
2023-04-03T16:29:47.832Z,5.92
2023-04-03T16:32:15.962Z,5.89
2023-04-03T16:34:43.929Z,5.88
2023-04-03T16:37:11.858Z,5.87
2023-04-03T16:39:39.764Z,5.88
2023-04-03T16:42:07.662Z,5.87
2023-04-03T16:44:35.646Z,5.85
2023-04-03T16:47:03.950Z,5.82
2023-04-03T16:49:33.982Z,5.79
2023-04-03T16:52:04.349Z,5.75
2023-04-03T16:54:33.013Z,5.72
2023-04-03T16:57:00.987Z,5.69
2023-04-03T16:59:29.041Z,5.64
2023-04-03T17:01:57.268Z,5.61
2023-04-03T17:04:25.512Z,5.56
2023-04-03T17:06:53.373Z,5.53
2023-04-03T17:09:22.053Z,5.48
2023-04-03T17:11:50.019Z,5.45
2023-04-03T17:14:18.239Z,5.41
2023-04-03T17:16:46.370Z,5.36
2023-04-03T17:19:15.090Z,5.33
2023-04-03T17:21:43.137Z,5.29
2023-04-03T17:24:13.541Z,5.25
2023-04-03T17:26:43.025Z,5.21
2023-04-03T17:29:13.616Z,5.17
2023-04-03T17:31:41.832Z,5.14
2023-04-03T17:34:12.155Z,5.10
2023-04-03T17:36:41.347Z,5.08
2023-04-03T17:39:09.307Z,5.05
2023-04-03T17:41:37.328Z,5.01
2023-04-03T17:44:06.210Z,4.99
2023-04-03T17:46:35.432Z,4.96
2023-04-03T17:49:04.720Z,4.94
2023-04-03T17:51:36.344Z,4.91
2023-04-03T17:54:04.307Z,4.90
2023-04-03T17:56:32.216Z,4.86
2023-04-03T17:59:00.375Z,4.85
2023-04-03T18:01:32.018Z,4.82
2023-04-03T18:04:03.168Z,4.79
2023-04-03T18:06:39.854Z,4.78
2023-04-03T18:09:17.556Z,4.75
2023-04-03T18:11:47.609Z,4.73
2023-04-03T18:14:20.343Z,4.72
2023-04-03T18:16:48.579Z,4.70
2023-04-03T18:21:49.652Z,4.68
2023-04-03T18:24:20.060Z,4.67
2023-04-03T18:26:54.111Z,4.66
2023-04-03T18:29:22.543Z,4.65
2023-04-03T18:31:53.065Z,4.64
2023-04-03T18:34:21.309Z,4.63
2023-04-03T18:36:49.450Z,4.62
2023-04-03T18:39:17.472Z,4.62
2023-04-03T18:41:45.683Z,4.61
2023-04-03T18:44:16.737Z,4.60
2023-04-03T18:46:45.014Z,4.60
2023-04-03T18:49:14.140Z,4.60
2023-04-03T18:51:42.410Z,4.59
2023-04-03T18:54:18.365Z,4.58
2023-04-03T18:56:49.414Z,4.57
2023-04-03T18:59:17.417Z,4.56
2023-04-03T19:01:48.052Z,4.56
2023-04-03T19:04:16.257Z,4.53
2023-04-03T19:06:44.238Z,4.52
2023-04-03T19:09:14.464Z,4.51
2023-04-03T19:11:42.473Z,4.50
2023-04-03T19:14:16.714Z,4.49
2023-04-03T19:16:45.553Z,4.47
2023-04-03T19:19:13.747Z,4.46
2023-04-03T19:21:42.222Z,4.44
2023-04-03T19:24:12.653Z,4.42
2023-04-03T19:26:42.505Z,4.41
2023-04-03T19:29:10.780Z,4.39
2023-04-03T19:31:39.397Z,4.37
2023-04-03T19:34:08.124Z,4.36
2023-04-03T19:36:36.512Z,4.34
2023-04-03T19:39:06.075Z,4.32
2023-04-03T19:41:35.793Z,4.31
2023-04-03T19:44:06.612Z,4.29
2023-04-03T19:46:35.648Z,4.27
2023-04-03T19:49:04.311Z,4.25
2023-04-03T19:51:32.278Z,4.23
2023-04-03T19:54:00.404Z,4.21
2023-04-03T19:56:28.313Z,4.19
2023-04-03T19:58:57.023Z,4.16
2023-04-03T20:01:26.968Z,4.13
2023-04-03T20:03:55.575Z,4.10
2023-04-03T20:06:23.534Z,4.07
2023-04-03T20:08:51.591Z,4.06
2023-04-03T20:11:19.947Z,4.03
2023-04-03T20:13:52.469Z,4.00
2023-04-03T20:16:24.525Z,3.97
2023-04-03T20:18:55.918Z,3.95
2023-04-03T20:21:30.763Z,3.92
2023-04-03T20:24:04.621Z,3.90
2023-04-03T20:26:34.829Z,3.88
2023-04-03T20:29:04.461Z,3.86
2023-04-03T20:31:33.591Z,3.85
2023-04-03T20:34:02.118Z,3.84
2023-04-03T20:36:31.166Z,3.83
2023-04-03T20:38:59.845Z,3.82
2023-04-03T20:41:28.003Z,3.81
2023-04-03T20:43:55.916Z,3.79
2023-04-03T20:46:34.960Z,3.77
2023-04-03T20:49:10.390Z,3.76
2023-04-03T20:51:38.868Z,3.75
2023-04-03T20:54:07.331Z,3.73
2023-04-03T20:56:35.660Z,3.71
2023-04-03T20:59:04.937Z,3.70
2023-04-03T21:01:33.509Z,3.68
2023-04-03T21:04:24.798Z,3.64
2023-04-03T21:07:48.437Z,3.61
2023-04-03T21:11:11.941Z,3.56
2023-04-03T21:14:35.381Z,3.51
2023-04-03T21:17:03.987Z,3.44
2023-04-03T21:19:31.905Z,3.40
2023-04-03T21:22:01.012Z,3.35
2023-04-03T21:24:29.509Z,3.30
2023-04-03T21:26:58.208Z,3.25
2023-04-03T21:29:26.209Z,3.20
2023-04-03T21:31:59.432Z,3.14
2023-04-03T21:34:31.968Z,3.10
2023-04-03T21:37:08.029Z,3.04
2023-04-03T21:39:36.237Z,2.99
2023-04-03T21:42:04.447Z,2.95
2023-04-03T21:44:32.589Z,2.90
2023-04-03T21:47:01.000Z,2.86
2023-04-03T21:49:29.493Z,2.83
2023-04-03T21:51:57.545Z,2.79
2023-04-03T21:54:25.488Z,2.77
2023-04-03T21:56:53.397Z,2.75
2023-04-03T21:59:21.659Z,2.73
2023-04-03T22:01:49.714Z,2.71
2023-04-03T22:04:17.638Z,2.70
2023-04-03T22:06:45.862Z,2.69
2023-04-03T22:09:14.039Z,2.68
2023-04-03T22:11:46.060Z,2.68
2023-04-03T22:14:14.170Z,2.68
2023-04-03T22:16:42.205Z,2.68
2023-04-03T22:19:10.160Z,2.67
2023-04-03T22:21:38.023Z,2.67
2023-04-03T22:24:06.214Z,2.66
2023-04-03T22:26:35.130Z,2.65
2023-04-03T22:29:03.773Z,2.65
2023-04-03T22:31:31.732Z,2.64
2023-04-03T22:34:03.896Z,2.63
2023-04-03T22:36:31.836Z,2.62
2023-04-03T22:39:00.620Z,2.61
2023-04-03T22:41:28.634Z,2.60
2023-04-03T22:43:57.760Z,2.57
2023-04-03T22:46:26.038Z,2.55
2023-04-03T22:48:53.922Z,2.52
2023-04-03T22:51:21.771Z,2.50
2023-04-03T22:53:49.594Z,2.47
2023-04-03T22:56:17.517Z,2.45
2023-04-03T22:58:48.041Z,2.41
2023-04-03T23:01:16.206Z,2.38
2023-04-03T23:03:44.048Z,2.34
2023-04-03T23:06:13.423Z,2.29
2023-04-03T23:08:42.759Z,2.25
2023-04-03T23:11:10.755Z,2.21
2023-04-03T23:13:38.693Z,2.17
2023-04-03T23:16:07.148Z,2.11
2023-04-03T23:18:39.800Z,2.07
2023-04-03T23:21:08.508Z,2.01
2023-04-03T23:23:36.518Z,1.97
2023-04-03T23:26:04.457Z,1.93
2023-04-03T23:28:32.353Z,1.88
2023-04-03T23:31:02.415Z,1.82
2023-04-03T23:33:31.978Z,1.77
2023-04-03T23:36:07.338Z,1.72
2023-04-03T23:38:36.090Z,1.67
2023-04-03T23:41:03.984Z,1.62
2023-04-03T23:43:32.188Z,1.58
2023-04-03T23:46:00.219Z,1.52
2023-04-03T23:48:28.122Z,1.48
2023-04-03T23:50:56.280Z,1.43
2023-04-03T23:53:24.186Z,1.39
2023-04-03T23:55:52.169Z,1.34
2023-04-03T23:58:20.305Z,1.28
